sensor_id;sensor_type;location;lat;lon;timestamp;pressure;altitude;pressure_sealevel;temperature;humidity
63582;BME280;49727;51.078;17.066;2023-01-09T00:07:03;98948.28;;;1.99;78.79
63582;BME280;49727;51.078;17.066;2023-01-09T00:22:03;98945.41;;;1.92;78.37
63582;BME280;49727;51.078;17.066;2023-01-09T00:37:05;98956.53;;;1.86;78.26
63582;BME280;49727;51.078;17.066;2023-01-09T00:52:11;98943.66;;;1.83;78.85
63582;BME280;49727;51.078;17.066;2023-01-09T01:07:12;98953.59;;;1.89;79.12
63582;BME280;49727;51.078;17.066;2023-01-09T01:22:31;98943.00;;;1.81;79.21
63582;BME280;49727;51.078;17.066;2023-01-09T01:37:33;98932.22;;;1.74;78.65
63582;BME280;49727;51.078;17.066;2023-01-09T01:52:34;98913.44;;;1.69;79.21
63582;BME280;49727;51.078;17.066;2023-01-09T02:07:36;98867.91;;;1.60;79.14
63582;BME280;49727;51.078;17.066;2023-01-09T02:38:19;98824.59;;;1.46;79.22
63582;BME280;49727;51.078;17.066;2023-01-09T02:53:48;98790.47;;;1.46;79.47
63582;BME280;49727;51.078;17.066;2023-01-09T03:08:56;98782.72;;;1.45;79.37
63582;BME280;49727;51.078;17.066;2023-01-09T03:24:00;98785.22;;;1.46;79.25
63582;BME280;49727;51.078;17.066;2023-01-09T03:39:00;98773.06;;;1.45;79.44
63582;BME280;49727;51.078;17.066;2023-01-09T03:54:01;98735.38;;;1.64;80.23
63582;BME280;49727;51.078;17.066;2023-01-09T04:09:01;98715.13;;;1.75;79.68
63582;BME280;49727;51.078;17.066;2023-01-09T04:24:02;98737.63;;;1.77;80.02
63582;BME280;49727;51.078;17.066;2023-01-09T04:39:02;98696.81;;;1.65;79.37
63582;BME280;49727;51.078;17.066;2023-01-09T04:54:03;98693.88;;;1.50;79.55
63582;BME280;49727;51.078;17.066;2023-01-09T05:09:04;98689.25;;;1.44;79.45
63582;BME280;49727;51.078;17.066;2023-01-09T05:24:04;98673.28;;;1.37;79.77
63582;BME280;49727;51.078;17.066;2023-01-09T05:39:05;98660.97;;;1.38;80.62
63582;BME280;49727;51.078;17.066;2023-01-09T05:54:05;98657.44;;;1.47;80.41
63582;BME280;49727;51.078;17.066;2023-01-09T06:09:07;98636.75;;;1.44;80.15
63582;BME280;49727;51.078;17.066;2023-01-09T06:24:07;98599.31;;;1.60;80.24
63582;BME280;49727;51.078;17.066;2023-01-09T06:39:08;98610.25;;;1.73;80.43
63582;BME280;49727;51.078;17.066;2023-01-09T06:54:08;98602.06;;;1.94;80.47
63582;BME280;49727;51.078;17.066;2023-01-09T07:09:09;98605.97;;;2.16;80.59
63582;BME280;49727;51.078;17.066;2023-01-09T07:24:12;98614.09;;;2.31;80.36
63582;BME280;49727;51.078;17.066;2023-01-09T07:39:13;98605.94;;;2.43;80.56
63582;BME280;49727;51.078;17.066;2023-01-09T07:54:13;98596.44;;;2.50;79.69
63582;BME280;49727;51.078;17.066;2023-01-09T08:09:15;98590.22;;;2.59;80.34
63582;BME280;49727;51.078;17.066;2023-01-09T08:24:15;98588.34;;;2.78;80.27
63582;BME280;49727;51.078;17.066;2023-01-09T08:39:15;98601.56;;;3.02;80.16
63582;BME280;49727;51.078;17.066;2023-01-09T08:54:16;98587.78;;;3.25;80.17
63582;BME280;49727;51.078;17.066;2023-01-09T09:09:16;98579.25;;;3.48;80.16
63582;BME280;49727;51.078;17.066;2023-01-09T09:24:18;98576.44;;;3.82;80.33
63582;BME280;49727;51.078;17.066;2023-01-09T09:39:18;98589.41;;;3.92;79.82
63582;BME280;49727;51.078;17.066;2023-01-09T09:54:26;98580.81;;;4.15;79.86
63582;BME280;49727;51.078;17.066;2023-01-09T10:09:48;98590.91;;;4.51;79.86
63582;BME280;49727;51.078;17.066;2023-01-09T10:25:16;98599.13;;;4.96;79.49
63582;BME280;49727;51.078;17.066;2023-01-09T10:40:24;98589.44;;;5.42;79.75
63582;BME280;49727;51.078;17.066;2023-01-09T10:55:39;98572.25;;;5.85;79.86
63582;BME280;49727;51.078;17.066;2023-01-09T11:10:50;98573.63;;;5.96;80.00
63582;BME280;49727;51.078;17.066;2023-01-09T11:25:53;98569.59;;;6.23;79.30
63582;BME280;49727;51.078;17.066;2023-01-09T11:40:56;98563.31;;;6.24;79.75
63582;BME280;49727;51.078;17.066;2023-01-09T11:55:59;98572.16;;;6.31;79.91
63582;BME280;49727;51.078;17.066;2023-01-09T12:56:54;98611.59;;;6.92;80.22
63582;BME280;49727;51.078;17.066;2023-01-09T13:12:06;98633.63;;;6.93;79.86
63582;BME280;49727;51.078;17.066;2023-01-09T13:27:12;98640.88;;;7.21;79.11
63582;BME280;49727;51.078;17.066;2023-01-09T13:42:17;98649.16;;;7.54;77.84
63582;BME280;49727;51.078;17.066;2023-01-09T13:57:42;98693.66;;;7.59;77.32
63582;BME280;49727;51.078;17.066;2023-01-09T14:12:44;98714.59;;;7.54;77.30
63582;BME280;49727;51.078;17.066;2023-01-09T14:42:58;98766.63;;;7.40;76.88
63582;BME280;49727;51.078;17.066;2023-01-09T14:58:23;98781.06;;;7.22;76.55
63582;BME280;49727;51.078;17.066;2023-01-09T15:13:34;98820.97;;;7.36;76.25
63582;BME280;49727;51.078;17.066;2023-01-09T15:28:40;98836.69;;;7.37;76.32
63582;BME280;49727;51.078;17.066;2023-01-09T15:43:41;98836.50;;;7.24;75.66
63582;BME280;49727;51.078;17.066;2023-01-09T15:58:44;98841.69;;;7.17;75.73
63582;BME280;49727;51.078;17.066;2023-01-09T16:13:48;98862.44;;;7.14;75.13
63582;BME280;49727;51.078;17.066;2023-01-09T16:28:50;98863.28;;;6.91;74.94
63582;BME280;49727;51.078;17.066;2023-01-09T16:43:51;98908.53;;;6.58;74.74
63582;BME280;49727;51.078;17.066;2023-01-09T16:58:51;98930.50;;;6.35;75.64
63582;BME280;49727;51.078;17.066;2023-01-09T17:13:53;98945.25;;;6.30;75.94
63582;BME280;49727;51.078;17.066;2023-01-09T17:28:54;98963.13;;;6.28;75.10
63582;BME280;49727;51.078;17.066;2023-01-09T17:43:55;98991.22;;;6.20;75.49
63582;BME280;49727;51.078;17.066;2023-01-09T17:58:56;98978.22;;;6.10;75.22
63582;BME280;49727;51.078;17.066;2023-01-09T18:13:56;98996.13;;;6.00;75.39
63582;BME280;49727;51.078;17.066;2023-01-09T18:28:59;99012.13;;;5.82;74.84
63582;BME280;49727;51.078;17.066;2023-01-09T18:44:00;99013.19;;;5.48;74.94
63582;BME280;49727;51.078;17.066;2023-01-09T18:59:00;99021.78;;;5.25;74.68
63582;BME280;49727;51.078;17.066;2023-01-09T19:14:01;99025.88;;;5.12;75.05
63582;BME280;49727;51.078;17.066;2023-01-09T19:29:01;99063.47;;;4.97;75.10
63582;BME280;49727;51.078;17.066;2023-01-09T19:44:02;99078.94;;;4.84;75.32
63582;BME280;49727;51.078;17.066;2023-01-09T19:59:04;99097.09;;;4.79;75.64
63582;BME280;49727;51.078;17.066;2023-01-09T20:14:04;99113.13;;;4.94;75.96
63582;BME280;49727;51.078;17.066;2023-01-09T20:29:05;99125.06;;;4.71;75.37
63582;BME280;49727;51.078;17.066;2023-01-09T20:44:12;99143.38;;;4.65;75.96
63582;BME280;49727;51.078;17.066;2023-01-09T20:59:15;99152.69;;;4.85;75.57
63582;BME280;49727;51.078;17.066;2023-01-09T21:14:16;99152.13;;;4.73;75.60
63582;BME280;49727;51.078;17.066;2023-01-09T21:29:17;99183.22;;;4.62;75.79
63582;BME280;49727;51.078;17.066;2023-01-09T21:44:17;99215.81;;;4.79;75.99
63582;BME280;49727;51.078;17.066;2023-01-09T21:59:36;99240.22;;;4.81;76.25
63582;BME280;49727;51.078;17.066;2023-01-09T22:14:37;99253.00;;;4.67;75.82
63582;BME280;49727;51.078;17.066;2023-01-09T22:29:37;99275.16;;;4.74;76.08
63582;BME280;49727;51.078;17.066;2023-01-09T22:44:38;99284.94;;;4.82;76.26
63582;BME280;49727;51.078;17.066;2023-01-09T22:59:38;99290.38;;;4.81;76.41
63582;BME280;49727;51.078;17.066;2023-01-09T23:14:38;99304.53;;;4.80;76.13
63582;BME280;49727;51.078;17.066;2023-01-09T23:29:39;99305.53;;;4.79;76.38
63582;BME280;49727;51.078;17.066;2023-01-09T23:44:39;99318.31;;;4.91;75.98
63582;BME280;49727;51.078;17.066;2023-01-09T23:59:40;99332.31;;;4.92;75.91
